LKNA

Náměšť Air Base Airport

Náměšť, Czech Republic
TAF LKNA 241700Z 2418/2518 29014KT CAVOK PROB40 TEMPO 2418/2421 29018G28KT 7000 SHRA SCT025TCU BKN030 TEMPO 2508/2515 29018G28KT 9999 BKN030 BECMG 2516/2518 30006KT
Issued Valid From Valid To
Sep-24 @ 17:00 UTC
(2 hours ago)
Sep-24 @ 18:00 UTC
(an hour ago)
Sep-25 @ 18:00 UTC
(in 23 hours)
Sep-24 @ 18:00 to Sep-25 @ 16:00
TAF LKNA 241700Z 2418/2518 29014KT CAVOK
Wind Visibility Clouds Conditions
290° at 14 knots 10,000+ meters
  • No significant clouds
Temporary  (Probability 40%) Sep-24 @ 18:00 to Sep-24 @ 21:00
PROB40 TEMPO 2418/2421 29018G28KT 7000 SHRA SCT025TCU BKN030
Wind Visibility Clouds Conditions
290° at 18 knots
 Gusting to 28 knots
7,001 meters
  • Scattered at 2,500' AGL
  • Broken at 3,000' AGL
  • Rain
Temporary Sep-25 @ 08:00 to Sep-25 @ 15:00
TEMPO 2508/2515 29018G28KT 9999 BKN030
Wind Visibility Clouds
290° at 18 knots
 Gusting to 28 knots
10,000+ meters
  • Broken at 3,000' AGL
Becoming Sep-25 @ 16:00 to Sep-25 @ 18:00
BECMG 2516/2518 30006KT
Wind Visibility Clouds Conditions
300° at 6 knots 10,000+ meters
  • No significant clouds
TAF LKNA 241700Z 2418/2518 29014KT CAVOK PROB40 TEMPO 2418/2421 29018G28KT 7000 SHRA SCT025TCU BKN030 TEMPO 2508/2515 29018G28KT 9999 BKN030 BECMG 2516/2518 30006KT
Issued Sep-24 @ 17:00 UTC
(2 hours ago)
Valid From Sep-24 @ 18:00 UTC
(an hour ago)
Valid To Sep-25 @ 18:00 UTC
(in 23 hours)
Sep-24 @ 18:00 - Sep-25 @ 16:00
Wind Visibility
290° at 14 knots 10,000+ meters
Clouds
  • No significant clouds
Conditions
Probability 40% Temporary Sep-24 @ 18:00 - Sep-24 @ 21:00
Wind Visibility
290° at 18 knots
 Gusting to 28 knots
7,001 meters
Clouds
  • Scattered at 2,500' AGL
  • Broken at 3,000' AGL
Conditions
  • Rain
Temporary Sep-25 @ 08:00 - Sep-25 @ 15:00
Wind Visibility
290° at 18 knots
 Gusting to 28 knots
10,000+ meters
Clouds
  • Broken at 3,000' AGL
Becoming Sep-25 @ 16:00 - Sep-25 @ 18:00
Wind Visibility
300° at 6 knots 10,000+ meters
Clouds
  • No significant clouds
Conditions